createdAt,value
2022-12-26T00:01:37.222Z,100983.50
2022-12-26T00:04:06.348Z,100969.16
2022-12-26T00:06:54.530Z,100974.59
2022-12-26T00:09:24.261Z,100972.19
2022-12-26T00:11:52.781Z,100981.91
2022-12-26T00:14:21.241Z,100982.72
2022-12-26T00:16:49.877Z,100980.31
2022-12-26T00:19:18.406Z,100972.97
2022-12-26T00:21:46.726Z,100968.72
2022-12-26T00:24:15.031Z,100975.25
2022-12-26T00:26:44.904Z,100975.66
2022-12-26T00:29:13.318Z,100967.09
2022-12-26T00:31:41.804Z,100985.22
2022-12-26T00:34:11.762Z,100992.13
2022-12-26T00:36:40.084Z,100987.88
2022-12-26T00:39:08.482Z,100990.56
2022-12-26T00:41:36.990Z,101001.00
2022-12-26T00:44:06.904Z,101002.09
2022-12-26T00:46:35.455Z,101014.41
2022-12-26T00:49:04.417Z,101012.44
2022-12-26T00:51:32.725Z,101016.25
2022-12-26T00:54:01.202Z,101011.19
2022-12-26T00:56:29.555Z,100998.44
2022-12-26T00:58:57.882Z,101011.19
2022-12-26T01:01:30.913Z,101013.47
2022-12-26T01:03:59.953Z,101017.75
2022-12-26T01:06:28.295Z,101022.38
2022-12-26T01:08:56.864Z,101006.06
2022-12-26T01:11:39.347Z,101009.97
2022-12-26T01:14:11.475Z,101018.88
2022-12-26T01:16:42.073Z,101009.97
2022-12-26T01:19:11.948Z,101014.94
2022-12-26T01:21:41.058Z,101019.94
2022-12-26T01:24:09.490Z,101035.28
2022-12-26T01:26:38.015Z,101038.34
2022-12-26T01:29:06.526Z,101038.72
2022-12-26T01:31:34.997Z,101035.09
2022-12-26T01:34:05.127Z,101041.31
2022-12-26T01:36:33.454Z,101048.31
2022-12-26T01:39:01.842Z,101043.56
2022-12-26T01:41:32.185Z,101042.00
2022-12-26T01:44:03.081Z,101042.00
2022-12-26T01:46:37.097Z,101055.97
2022-12-26T01:49:14.533Z,101043.56
2022-12-26T01:51:47.354Z,101030.41
2022-12-26T01:54:39.277Z,101038.88
2022-12-26T01:57:12.903Z,101048.09
2022-12-26T01:59:43.364Z,101049.25
2022-12-26T02:02:12.647Z,101042.69
2022-12-26T02:05:05.903Z,101057.38
2022-12-26T02:07:36.604Z,101062.34
2022-12-26T02:10:06.894Z,101066.63
2022-12-26T02:12:38.924Z,101064.25
2022-12-26T02:15:10.783Z,101069.94
2022-12-26T02:17:40.753Z,101080.41
2022-12-26T02:20:20.287Z,101068.00
2022-12-26T02:23:27.980Z,101071.50
2022-12-26T02:26:32.346Z,101074.56
2022-12-26T02:29:43.525Z,101078.84
2022-12-26T02:32:21.880Z,101097.78
2022-12-26T02:35:00.103Z,101098.91
2022-12-26T02:37:48.092Z,101075.25
2022-12-26T02:40:51.328Z,101077.84
2022-12-26T02:43:29.039Z,101085.06
2022-12-26T02:46:30.586Z,101080.44
2022-12-26T02:49:08.454Z,101097.47
2022-12-26T02:52:11.015Z,101097.81
2022-12-26T02:55:02.337Z,101101.69
2022-12-26T02:57:54.494Z,101111.28
2022-12-26T03:00:52.207Z,101103.47
2022-12-26T03:03:44.297Z,101103.81
2022-12-26T03:06:36.427Z,101107.66
2022-12-26T03:09:26.667Z,101099.88
2022-12-26T03:12:15.144Z,101099.78
2022-12-26T03:14:48.667Z,101099.78
2022-12-26T03:17:27.046Z,101092.00
2022-12-26T03:20:01.301Z,101088.19
2022-12-26T03:22:38.893Z,101085.81
2022-12-26T03:25:28.489Z,101095.84
2022-12-26T03:27:57.345Z,101098.56
2022-12-26T03:30:40.298Z,101092.81
2022-12-26T03:33:29.596Z,101105.97
2022-12-26T03:35:57.891Z,101105.97
2022-12-26T03:38:35.793Z,101095.16
2022-12-26T03:41:29.534Z,101091.31
2022-12-26T03:44:37.428Z,101088.63
2022-12-26T03:47:36.645Z,101092.94
2022-12-26T03:50:29.757Z,101093.72
2022-12-26T03:53:24.006Z,101096.72
2022-12-26T03:56:19.220Z,101097.44
2022-12-26T03:59:12.345Z,101094.53
2022-12-26T04:02:01.313Z,101097.22
2022-12-26T04:04:49.563Z,101083.25
2022-12-26T04:07:56.730Z,101094.78
2022-12-26T04:10:49.860Z,101107.06
2022-12-26T04:13:42.206Z,101123.59
2022-12-26T04:16:35.267Z,101115.84
2022-12-26T04:19:33.562Z,101116.97
2022-12-26T04:22:26.112Z,101115.75
2022-12-26T04:25:17.885Z,101118.34
2022-12-26T04:28:04.003Z,101108.19
2022-12-26T04:30:54.851Z,101109.34
2022-12-26T04:33:46.232Z,101106.53
2022-12-26T04:36:35.466Z,101111.94
2022-12-26T04:39:25.579Z,101108.78
2022-12-26T04:42:13.286Z,101110.25
2022-12-26T04:44:42.902Z,101103.63
2022-12-26T04:47:15.053Z,101106.97
2022-12-26T04:50:02.792Z,101106.97
2022-12-26T04:52:45.722Z,101112.38
2022-12-26T04:55:14.184Z,101110.41
2022-12-26T04:57:42.531Z,101119.63
2022-12-26T05:00:12.897Z,101119.16
2022-12-26T05:03:00.294Z,101117.59
2022-12-26T05:05:48.806Z,101109.81
2022-12-26T05:08:43.373Z,101102.84
2022-12-26T05:11:11.751Z,101112.06
2022-12-26T05:13:40.513Z,101111.28
2022-12-26T05:16:27.015Z,101118.16
2022-12-26T05:19:14.508Z,101132.78
2022-12-26T05:22:00.653Z,101125.03
2022-12-26T05:24:52.787Z,101128.84
2022-12-26T05:27:39.239Z,101136.97
2022-12-26T05:30:09.518Z,101141.25
2022-12-26T05:32:55.639Z,101127.72
2022-12-26T05:35:25.850Z,101119.63
2022-12-26T05:37:54.132Z,101120.75
2022-12-26T05:40:22.408Z,101114.22
2022-12-26T05:42:50.776Z,101114.22
2022-12-26T05:45:19.231Z,101107.25
2022-12-26T05:47:51.848Z,101110.25
2022-12-26T05:50:20.606Z,101104.06
2022-12-26T05:52:50.441Z,101101.00
2022-12-26T05:55:18.993Z,101107.69
2022-12-26T05:57:47.859Z,101104.53
2022-12-26T06:00:17.403Z,101097.53
2022-12-26T06:02:45.831Z,101103.28
2022-12-26T06:05:14.347Z,101107.56
2022-12-26T06:07:42.786Z,101106.34
2022-12-26T06:10:13.080Z,101105.97
2022-12-26T06:12:41.623Z,101107.47
2022-12-26T06:15:12.840Z,101100.94
2022-12-26T06:17:41.351Z,101105.91
2022-12-26T06:20:10.801Z,101112.41
2022-12-26T06:22:39.603Z,101119.28
2022-12-26T06:25:12.125Z,101123.09
2022-12-26T06:27:40.381Z,101113.75
2022-12-26T06:30:09.979Z,101129.97
2022-12-26T06:32:38.265Z,101131.22
2022-12-26T06:35:07.676Z,101117.59
2022-12-26T06:37:36.784Z,101116.22
2022-12-26T06:40:06.467Z,101116.22
2022-12-26T06:42:36.118Z,101134.81
2022-12-26T06:45:04.811Z,101134.50
2022-12-26T06:47:33.151Z,101148.00
2022-12-26T06:50:01.541Z,101132.59
2022-12-26T06:52:29.919Z,101129.53
2022-12-26T06:54:58.834Z,101136.50
2022-12-26T06:57:27.221Z,101141.56
2022-12-26T06:59:56.893Z,101149.66
2022-12-26T07:02:25.302Z,101162.06
2022-12-26T07:04:53.858Z,101174.47
2022-12-26T07:07:22.117Z,101170.28
2022-12-26T07:09:50.417Z,101181.22
2022-12-26T07:12:21.940Z,101184.03
2022-12-26T07:14:50.727Z,101175.59
2022-12-26T07:17:20.594Z,101171.41
2022-12-26T07:19:49.246Z,101183.16
2022-12-26T07:22:17.705Z,101182.00
2022-12-26T07:24:46.160Z,101181.34
2022-12-26T07:27:14.422Z,101185.28
2022-12-26T07:29:42.725Z,101187.97
2022-12-26T07:32:11.321Z,101191.91
2022-12-26T07:34:41.046Z,101189.66
2022-12-26T07:37:09.390Z,101190.09
2022-12-26T07:39:38.245Z,101187.84
2022-12-26T07:42:07.007Z,101190.56
2022-12-26T07:44:35.672Z,101198.66
2022-12-26T07:47:03.941Z,101196.41
2022-12-26T07:49:32.634Z,101188.28
2022-12-26T07:52:02.528Z,101189.56
2022-12-26T07:54:32.290Z,101190.34
2022-12-26T07:57:29.808Z,101177.16
2022-12-26T07:59:53.174Z,101174.34
2022-12-26T08:02:22.202Z,101180.88
2022-12-26T08:04:50.688Z,101174.66
2022-12-26T08:07:21.060Z,101191.22
2022-12-26T08:09:49.390Z,101192.03
2022-12-26T08:12:21.377Z,101197.09
2022-12-26T08:14:49.971Z,101200.25
2022-12-26T08:17:18.544Z,101210.41
2022-12-26T08:19:46.960Z,101209.63
2022-12-26T08:22:15.362Z,101212.31
2022-12-26T08:24:45.018Z,101208.81
2022-12-26T08:27:13.315Z,101212.63
2022-12-26T08:29:41.617Z,101213.75
2022-12-26T08:32:09.936Z,101211.06
2022-12-26T08:34:38.543Z,101202.16
2022-12-26T08:37:07.427Z,101205.66
2022-12-26T08:39:35.887Z,101220.75
2022-12-26T08:42:05.794Z,101220.44
2022-12-26T08:44:34.593Z,101221.53
2022-12-26T08:47:02.990Z,101223.44
2022-12-26T08:49:31.331Z,101219.97
2022-12-26T08:52:00.038Z,101224.56
2022-12-26T08:54:29.237Z,101221.44
2022-12-26T08:56:57.573Z,101224.13
2022-12-26T08:59:27.483Z,101238.78
2022-12-26T09:01:55.803Z,101241.03
2022-12-26T09:04:24.773Z,101236.06
2022-12-26T09:06:53.264Z,101240.34
2022-12-26T09:09:21.570Z,101248.69
2022-12-26T09:11:49.865Z,101236.88
2022-12-26T09:14:18.179Z,101231.53
2022-12-26T09:16:51.010Z,101231.53
2022-12-26T09:19:21.425Z,101239.25
2022-12-26T09:22:11.175Z,101248.47
2022-12-26T09:24:39.554Z,101257.72
2022-12-26T09:27:08.032Z,101257.72
2022-12-26T09:29:38.137Z,101248.94
2022-12-26T09:32:08.138Z,101240.94
2022-12-26T09:34:36.404Z,101251.75
2022-12-26T09:37:05.443Z,101257.44
2022-12-26T09:39:33.906Z,101272.09
2022-12-26T09:42:13.767Z,101280.44
2022-12-26T09:44:51.005Z,101263.25
2022-12-26T09:47:33.255Z,101264.88
2022-12-26T09:50:10.677Z,101261.56
2022-12-26T09:52:45.868Z,101277.22
2022-12-26T09:55:38.732Z,101274.72
2022-12-26T09:58:20.645Z,101293.88
2022-12-26T10:00:54.131Z,101279.19
2022-12-26T10:03:24.680Z,101272.91
2022-12-26T10:06:16.897Z,101290.28
2022-12-26T10:09:10.361Z,101288.03
2022-12-26T10:12:03.725Z,101283.25
2022-12-26T10:14:42.915Z,101285.00
2022-12-26T10:17:21.459Z,101283.47
2022-12-26T10:20:10.580Z,101301.97
2022-12-26T10:23:10.410Z,101297.00
2022-12-26T10:25:47.705Z,101301.03
2022-12-26T10:28:23.438Z,101298.78
2022-12-26T10:30:55.442Z,101294.22
2022-12-26T10:33:36.584Z,101295.22
2022-12-26T10:36:07.264Z,101301.88
2022-12-26T10:38:41.431Z,101289.78
2022-12-26T10:41:16.775Z,101297.47
2022-12-26T10:43:45.708Z,101299.00
2022-12-26T10:46:58.350Z,101287.00
2022-12-26T10:49:28.743Z,101296.28
2022-12-26T10:52:02.428Z,101300.53
2022-12-26T10:54:31.711Z,101284.19
2022-12-26T10:57:02.190Z,101288.81
2022-12-26T10:59:42.571Z,101291.09
2022-12-26T11:02:25.393Z,101288.38
2022-12-26T11:05:15.994Z,101283.75
2022-12-26T11:08:08.717Z,101297.63
2022-12-26T11:10:37.628Z,101305.31
2022-12-26T11:13:09.851Z,101323.06
2022-12-26T11:15:42.427Z,101318.28
2022-12-26T11:18:24.470Z,101300.06
2022-12-26T11:20:52.836Z,101296.09
2022-12-26T11:23:28.951Z,101305.34
2022-12-26T11:25:59.429Z,101305.34
2022-12-26T11:28:33.663Z,101309.56
2022-12-26T11:31:06.377Z,101308.78
2022-12-26T11:33:38.254Z,101310.34
2022-12-26T11:36:22.448Z,101311.47
2022-12-26T11:38:58.398Z,101305.28
2022-12-26T11:41:39.923Z,101306.13
2022-12-26T11:44:31.337Z,101289.09
2022-12-26T11:47:03.088Z,101311.44
2022-12-26T11:49:36.249Z,101311.38
2022-12-26T11:52:37.753Z,101315.50
2022-12-26T11:55:30.887Z,101322.41
2022-12-26T11:58:06.263Z,101319.59
2022-12-26T12:00:37.198Z,101343.88
2022-12-26T12:03:12.600Z,101357.84
2022-12-26T12:05:49.524Z,101364.56
2022-12-26T12:08:37.697Z,101382.50
2022-12-26T12:11:26.635Z,101379.88
2022-12-26T12:14:11.966Z,101383.56
2022-12-26T12:16:54.054Z,101383.88
2022-12-26T12:19:50.248Z,101398.28
2022-12-26T12:23:20.710Z,101394.66
2022-12-26T12:26:06.422Z,101395.44
2022-12-26T12:29:09.320Z,101385.91
2022-12-26T12:31:54.893Z,101384.97
2022-12-26T12:34:34.528Z,101389.94
2022-12-26T12:37:20.186Z,101390.13
2022-12-26T12:39:57.734Z,101391.91
2022-12-26T12:42:42.249Z,101392.59
2022-12-26T12:45:34.913Z,101377.81
2022-12-26T12:48:26.518Z,101384.22
2022-12-26T12:51:06.254Z,101392.66
2022-12-26T12:53:58.318Z,101387.25
2022-12-26T12:56:42.017Z,101395.03
2022-12-26T12:59:25.016Z,101392.78
2022-12-26T13:02:03.974Z,101393.44
2022-12-26T13:04:41.078Z,101394.09
2022-12-26T13:07:21.716Z,101387.91
2022-12-26T13:09:55.630Z,101399.97
2022-12-26T13:12:28.464Z,101406.50
2022-12-26T13:15:01.476Z,101417.28
2022-12-26T13:17:36.274Z,101417.28
2022-12-26T13:20:19.224Z,101435.28
2022-12-26T13:23:10.644Z,101428.19
2022-12-26T13:25:45.575Z,101426.81
2022-12-26T13:28:22.534Z,101433.16
2022-12-26T13:30:54.666Z,101431.78
2022-12-26T13:33:25.057Z,101444.84
2022-12-26T13:35:58.786Z,101431.69
2022-12-26T13:39:06.907Z,101443.59
2022-12-26T13:41:54.555Z,101441.22
2022-12-26T13:44:28.451Z,101449.97
2022-12-26T13:46:59.195Z,101438.09
2022-12-26T13:49:36.260Z,101458.63
2022-12-26T13:52:34.663Z,101458.38
2022-12-26T13:55:42.664Z,101472.69
2022-12-26T13:58:50.335Z,101474.44
2022-12-26T14:01:42.309Z,101488.59
2022-12-26T14:04:35.403Z,101476.88
2022-12-26T14:07:23.122Z,101479.09
2022-12-26T14:10:06.187Z,101485.63
2022-12-26T14:13:05.761Z,101485.00
2022-12-26T14:15:51.621Z,101479.44
2022-12-26T14:18:39.244Z,101515.03
2022-12-26T14:21:35.239Z,101508.97
2022-12-26T14:24:24.713Z,101521.72
2022-12-26T14:27:08.177Z,101531.41
2022-12-26T14:29:47.477Z,101537.31
2022-12-26T14:32:30.309Z,101535.84
2022-12-26T14:35:10.109Z,101545.03
2022-12-26T14:37:52.356Z,101556.47
2022-12-26T14:40:30.277Z,101556.81
2022-12-26T14:43:24.836Z,101561.41
2022-12-26T14:45:54.849Z,101557.72
2022-12-26T14:48:52.793Z,101562.66
2022-12-26T14:51:39.314Z,101567.25
2022-12-26T14:54:39.589Z,101568.34
2022-12-26T14:57:45.832Z,101567.41
2022-12-26T15:00:33.577Z,101581.50
2022-12-26T15:03:45.803Z,101581.38
2022-12-26T15:06:52.035Z,101586.91
2022-12-26T15:09:55.479Z,101596.25
2022-12-26T15:13:23.484Z,101598.47
2022-12-26T15:16:21.379Z,101598.28
2022-12-26T15:19:33.827Z,101608.06
2022-12-26T15:22:41.510Z,101622.03
2022-12-26T15:26:03.037Z,101638.97
2022-12-26T15:28:58.462Z,101643.53
2022-12-26T15:31:49.197Z,101647.28
2022-12-26T15:34:46.887Z,101651.50
2022-12-26T15:37:30.695Z,101666.69
2022-12-26T15:40:11.655Z,101667.91
2022-12-26T15:43:00.574Z,101683.41
2022-12-26T15:45:46.472Z,101683.81
2022-12-26T15:48:31.806Z,101675.13
2022-12-26T15:51:06.484Z,101685.69
2022-12-26T15:53:55.312Z,101684.53
2022-12-26T15:56:51.772Z,101689.81
2022-12-26T16:00:09.692Z,101695.94
2022-12-26T16:02:47.044Z,101688.59
2022-12-26T16:05:41.696Z,101703.25
2022-12-26T16:08:49.833Z,101709.06
2022-12-26T16:11:22.275Z,101721.50
2022-12-26T16:13:59.184Z,101728.88
2022-12-26T16:16:33.752Z,101725.22
2022-12-26T16:19:17.706Z,101732.28
2022-12-26T16:22:08.169Z,101737.72
2022-12-26T16:24:39.078Z,101743.81
2022-12-26T16:27:16.227Z,101750.06
2022-12-26T16:29:48.586Z,101756.88
2022-12-26T16:32:22.569Z,101759.66
2022-12-26T16:34:51.384Z,101754.88
2022-12-26T16:37:24.084Z,101759.25
2022-12-26T16:40:21.802Z,101763.63
2022-12-26T16:43:00.819Z,101764.22
2022-12-26T16:45:33.651Z,101771.78
2022-12-26T16:48:06.560Z,101772.34
2022-12-26T16:50:37.731Z,101766.88
2022-12-26T16:53:14.806Z,101783.50
2022-12-26T16:55:47.667Z,101779.00
2022-12-26T16:58:22.600Z,101782.31
2022-12-26T17:01:02.817Z,101788.25
2022-12-26T17:03:45.568Z,101801.19
2022-12-26T17:06:17.858Z,101803.13
2022-12-26T17:08:50.200Z,101804.81
2022-12-26T17:11:19.394Z,101807.31
2022-12-26T17:13:54.535Z,101814.56
2022-12-26T17:16:25.623Z,101819.44
2022-12-26T17:18:56.050Z,101815.72
2022-12-26T17:21:30.078Z,101814.38
2022-12-26T17:24:21.266Z,101828.44
2022-12-26T17:26:53.400Z,101818.06
2022-12-26T17:30:01.707Z,101811.19
2022-12-26T17:32:36.951Z,101814.72
2022-12-26T17:35:13.620Z,101813.72
2022-12-26T17:37:43.147Z,101819.63
2022-12-26T17:40:24.445Z,101811.66
2022-12-26T17:42:56.021Z,101832.63
2022-12-26T17:45:27.115Z,101831.59
2022-12-26T17:47:56.380Z,101835.66
2022-12-26T17:50:32.902Z,101837.03
2022-12-26T17:53:07.208Z,101848.34
2022-12-26T17:55:36.337Z,101852.13
2022-12-26T17:58:04.726Z,101851.09
2022-12-26T18:00:33.315Z,101850.06
2022-12-26T18:03:01.665Z,101850.63
2022-12-26T18:05:31.687Z,101847.44
2022-12-26T18:08:00.583Z,101855.00
2022-12-26T18:10:34.650Z,101859.03
2022-12-26T18:13:03.494Z,101863.91
2022-12-26T18:15:32.880Z,101863.13
2022-12-26T18:18:01.205Z,101880.63
2022-12-26T18:20:32.024Z,101887.31
2022-12-26T18:23:00.328Z,101883.34
2022-12-26T18:25:28.835Z,101890.06
2022-12-26T18:27:57.123Z,101893.31
2022-12-26T18:30:27.542Z,101889.84
2022-12-26T18:32:56.346Z,101906.22
2022-12-26T18:35:24.839Z,101915.06
2022-12-26T18:37:54.981Z,101919.88
2022-12-26T18:40:31.036Z,101915.09
2022-12-26T18:42:59.349Z,101926.13
2022-12-26T18:45:27.800Z,101925.09
2022-12-26T18:47:56.329Z,101927.25
2022-12-26T18:50:25.929Z,101933.41
2022-12-26T18:52:56.136Z,101938.78
2022-12-26T18:55:25.915Z,101939.88
2022-12-26T18:57:54.613Z,101935.56
2022-12-26T19:00:24.217Z,101950.84
2022-12-26T19:02:56.788Z,101966.41
2022-12-26T19:05:29.134Z,101963.22
2022-12-26T19:07:59.948Z,101971.00
2022-12-26T19:10:31.426Z,101969.69
2022-12-26T19:13:05.648Z,101971.34
2022-12-26T19:15:36.002Z,101980.19
2022-12-26T19:18:05.799Z,101985.84
2022-12-26T19:20:37.691Z,101980.47
2022-12-26T19:23:10.303Z,101983.44
2022-12-26T19:25:38.583Z,101990.16
2022-12-26T19:28:07.133Z,101997.66
2022-12-26T19:30:39.064Z,102004.09
2022-12-26T19:33:07.807Z,102003.06
2022-12-26T19:35:36.116Z,102006.78
2022-12-26T19:38:04.593Z,102009.47
2022-12-26T19:40:34.307Z,102003.31
2022-12-26T19:43:02.685Z,102006.28
2022-12-26T19:45:31.017Z,102016.19
2022-12-26T19:47:59.453Z,102015.09
2022-12-26T19:50:27.808Z,102019.38
2022-12-26T19:52:56.171Z,102013.22
2022-12-26T19:55:24.472Z,102025.81
2022-12-26T19:57:54.134Z,102028.50
2022-12-26T20:00:22.653Z,102025.03
2022-12-26T20:03:42.162Z,102033.34
2022-12-26T20:06:12.278Z,102031.44
2022-12-26T20:08:41.479Z,102033.34
2022-12-26T20:11:12.861Z,102038.72
2022-12-26T20:13:42.205Z,102033.34
2022-12-26T20:16:54.484Z,102031.97
2022-12-26T20:19:09.498Z,102029.81
2022-12-26T20:21:38.463Z,102031.44
2022-12-26T20:24:07.358Z,102031.44
2022-12-26T20:26:35.650Z,102023.94
2022-12-26T20:29:04.107Z,102033.28
2022-12-26T20:31:34.113Z,102038.38
2022-12-26T20:34:03.113Z,102041.31
2022-12-26T20:36:34.923Z,102037.84
2022-12-26T20:39:07.334Z,102045.31
2022-12-26T20:41:36.316Z,102048.00
2022-12-26T20:44:04.693Z,102044.19
2022-12-26T20:46:35.176Z,102046.63
2022-12-26T20:49:04.997Z,102057.06
2022-12-26T20:56:19.129Z,102061.88
2022-12-26T20:58:48.521Z,102058.94
2022-12-26T21:01:18.796Z,102070.97
2022-12-26T21:06:45.534Z,102064.00
2022-12-26T21:09:14.418Z,102069.34
2022-12-26T21:11:45.572Z,102066.69
2022-12-26T21:14:17.147Z,102073.63
2022-12-26T21:16:48.604Z,102073.09
2022-12-26T21:19:17.937Z,102073.66
2022-12-26T21:21:50.409Z,102081.19
2022-12-26T21:24:22.241Z,102085.75
2022-12-26T21:26:51.920Z,102078.75
2022-12-26T21:29:23.999Z,102086.78
2022-12-26T21:31:53.352Z,102094.59
2022-12-26T21:34:49.021Z,102089.78
2022-12-26T21:37:35.015Z,102101.09
2022-12-26T21:40:03.529Z,102110.44
2022-12-26T21:42:33.378Z,102112.63
2022-12-26T21:45:01.596Z,102103.53
2022-12-26T21:47:29.872Z,102110.50
2022-12-26T21:49:58.220Z,102112.63
2022-12-26T21:52:27.399Z,102112.91
2022-12-26T21:55:13.068Z,102103.78
2022-12-26T21:57:42.849Z,102114.50
2022-12-26T22:00:12.670Z,102118.31
2022-12-26T22:02:58.732Z,102121.25
2022-12-26T22:05:30.587Z,102116.97
2022-12-26T22:08:01.342Z,102116.19
2022-12-26T22:10:49.582Z,102108.66
2022-12-26T22:13:20.676Z,102122.88
2022-12-26T22:16:07.482Z,102114.03
2022-12-26T22:18:39.438Z,102128.50
2022-12-26T22:21:11.273Z,102134.13
2022-12-26T22:23:41.195Z,102134.41
2022-12-26T22:26:11.504Z,102133.34
2022-12-26T22:28:41.702Z,102141.38
2022-12-26T22:31:18.621Z,102141.38
2022-12-26T22:33:46.865Z,102132.53
2022-12-26T22:36:15.386Z,102144.06
2022-12-26T22:38:43.648Z,102144.06
2022-12-26T22:41:12.185Z,102144.06
2022-12-26T22:43:43.268Z,102149.41
2022-12-26T22:46:11.716Z,102157.97
2022-12-26T22:48:40.439Z,102146.22
2022-12-26T22:51:09.550Z,102152.09
2022-12-26T22:53:37.759Z,102162.00
2022-12-26T22:56:09.059Z,102159.06
2022-12-26T22:58:37.224Z,102164.13
2022-12-26T23:01:14.219Z,102170.28
2022-12-26T23:03:42.640Z,102171.66
2022-12-26T23:06:21.705Z,102177.28
2022-12-26T23:08:51.794Z,102173.53
2022-12-26T23:11:21.023Z,102167.91
2022-12-26T23:13:50.661Z,102176.72
2022-12-26T23:16:36.474Z,102179.13
2022-12-26T23:19:34.350Z,102173.47
2022-12-26T23:22:05.208Z,102187.16
2022-12-26T23:24:34.979Z,102175.38
2022-12-26T23:27:20.073Z,102179.66
2022-12-26T23:30:06.283Z,102185.81
2022-12-26T23:32:36.511Z,102185.81
2022-12-26T23:35:06.402Z,102177.25
2022-12-26T23:37:34.683Z,102184.19
2022-12-26T23:40:02.980Z,102178.56
2022-12-26T23:42:31.440Z,102186.63
2022-12-26T23:44:59.876Z,102185.81
2022-12-26T23:47:28.368Z,102190.38
2022-12-26T23:49:58.032Z,102193.84
2022-12-26T23:52:30.267Z,102187.97
2022-12-26T23:54:59.045Z,102190.94
2022-12-26T23:57:27.914Z,102201.41
2022-12-26T23:59:56.235Z,102192.81
